Station Historical Data
Daily Summary for May 5, 2012 Units:  English    Metric   Both
« Previous Day
Next Day »
Daily Weekly Monthly Yearly Custom
  High: Low: Average:
Temperature: 85.8 °F 65.0 °F 74.6 °F
Dew Point: 73.9 °F 63.0 °F 68.7 °F
Humidity: 94% 63% 83%
Wind Speed: 9.0mph 0.0mph 2.1mph
Wind Gust: 12.0mph - -
Wind- - SSE
Pressure: 30.00 in 29.85 in -
Precipitation: 0.00 in    
Historical Graphs
 
 
Tabular Data for May 5, 2012
Time Temperature Dew Point Pressure Wind Wind Speed Wind Gust Humidity Rainfall Rate (Hourly) Conditions
00:00 70.8 °F 68.1 °F 29.93 in South 2.0 mph 4.0 mph 91% 0.00 in
00:01 70.8 °F 68.1 °F 29.93 in SW 2.0 mph 4.0 mph 91% 0.00 in
00:03 70.8 °F 68.1 °F 29.93 in SSW 2.0 mph 4.0 mph 91% 0.00 in
00:08 70.7 °F 67.9 °F 29.93 in SSW 2.0 mph 2.0 mph 91% 0.00 in
00:13 70.6 °F 68.2 °F 29.92 in SSE 2.0 mph 3.0 mph 92% 0.00 in
00:18 70.6 °F 67.8 °F 29.93 in SSW 3.0 mph 4.0 mph 91% 0.00 in
00:23 70.5 °F 68.1 °F 29.92 in SSW 2.0 mph 3.0 mph 92% 0.00 in
00:28 70.4 °F 68.0 °F 29.92 in South 2.0 mph 3.0 mph 92% 0.00 in
00:33 70.3 °F 67.9 °F 29.93 in South 2.0 mph 3.0 mph 92% 0.00 in
00:38 70.1 °F 67.7 °F 29.93 in SSW 1.0 mph 2.0 mph 92% 0.00 in
00:43 70.0 °F 67.6 °F 29.93 in Calm   1.0 mph 92% 0.00 in
00:48 69.8 °F 67.4 °F 29.93 in South 1.0 mph 1.0 mph 92% 0.00 in
00:53 69.7 °F 67.3 °F 29.93 in Calm   1.0 mph 92% 0.00 in
00:58 69.6 °F 67.2 °F 29.93 in Calm   1.0 mph 92% 0.00 in
01:03 69.4 °F 67.0 °F 29.93 in Calm   1.0 mph 92% 0.00 in
01:08 69.2 °F 66.8 °F 29.93 in Calm     92% 0.00 in
01:14 69.0 °F 66.9 °F 29.93 in Calm     93% 0.00 in
01:19 68.8 °F 66.7 °F 29.93 in Calm     93% 0.00 in
01:24 68.6 °F 66.5 °F 29.93 in Calm     93% 0.00 in
01:29 68.4 °F 66.3 °F 29.93 in Calm     93% 0.00 in
01:34 68.5 °F 66.4 °F 29.93 in Calm     93% 0.00 in
01:39 68.6 °F 66.5 °F 29.92 in Calm     93% 0.00 in
01:44 68.6 °F 66.5 °F 29.93 in SE 1.0 mph 1.0 mph 93% 0.00 in
02:58 67.7 °F 65.6 °F 29.90 in SE 3.0 mph 4.0 mph 93% 0.00 in
02:59 67.8 °F 65.7 °F 29.90 in South 3.0 mph 4.0 mph 93% 0.00 in
03:04 67.9 °F 65.8 °F 29.90 in South 2.0 mph 4.0 mph 93% 0.00 in
03:09 68.0 °F 65.9 °F 29.90 in South 3.0 mph 4.0 mph 93% 0.00 in
03:14 68.0 °F 65.9 °F 29.90 in SSW 2.0 mph 4.0 mph 93% 0.00 in
03:19 68.0 °F 65.9 °F 29.90 in SW 1.0 mph 3.0 mph 93% 0.00 in
03:24 68.0 °F 65.9 °F 29.90 in South 3.0 mph 3.0 mph 93% 0.00 in
03:29 68.0 °F 65.9 °F 29.90 in SSE 3.0 mph 3.0 mph 93% 0.00 in
03:34 67.9 °F 65.8 °F 29.90 in SSE 1.0 mph 3.0 mph 93% 0.00 in
03:39 67.7 °F 65.6 °F 29.90 in SSE 1.0 mph 3.0 mph 93% 0.00 in
03:45 67.6 °F 65.5 °F 29.89 in SSE 2.0 mph 3.0 mph 93% 0.00 in
03:50 67.4 °F 65.3 °F 29.89 in SSE 2.0 mph 2.0 mph 93% 0.00 in
03:55 67.2 °F 65.1 °F 29.89 in SSE 2.0 mph 3.0 mph 93% 0.00 in
04:00 67.0 °F 64.9 °F 29.89 in SE 3.0 mph 3.0 mph 93% 0.00 in
04:05 66.9 °F 64.8 °F 29.89 in SE 2.0 mph 3.0 mph 93% 0.00 in
04:10 66.9 °F 64.8 °F 29.89 in SSE 1.0 mph 2.0 mph 93% 0.00 in
04:15 66.9 °F 64.8 °F 29.89 in SE 1.0 mph 2.0 mph 93% 0.00 in
04:20 66.9 °F 64.8 °F 29.90 in Calm   1.0 mph 93% 0.00 in
04:25 66.8 °F 64.7 °F 29.90 in Calm     93% 0.00 in
04:30 66.7 °F 64.6 °F 29.90 in Calm     93% 0.00 in
04:35 66.7 °F 64.6 °F 29.90 in Calm     93% 0.00 in
04:40 66.7 °F 64.6 °F 29.90 in Calm   1.0 mph 93% 0.00 in
04:45 66.8 °F 64.7 °F 29.90 in Calm   1.0 mph 93% 0.00 in
04:50 66.9 °F 64.8 °F 29.91 in Calm     93% 0.00 in
04:55 66.7 °F 64.6 °F 29.91 in Calm   1.0 mph 93% 0.00 in
05:00 66.6 °F 64.5 °F 29.91 in Calm     93% 0.00 in
05:05 66.6 °F 64.5 °F 29.91 in ESE 1.0 mph 1.0 mph 93% 0.00 in
05:10 66.6 °F 64.5 °F 29.91 in SE 1.0 mph 1.0 mph 93% 0.00 in
05:15 66.5 °F 64.4 °F 29.90 in SE 1.0 mph 1.0 mph 93% 0.00 in
05:20 66.5 °F 64.4 °F 29.90 in SSE 1.0 mph 2.0 mph 93% 0.00 in
05:25 66.6 °F 64.5 °F 29.91 in SE 1.0 mph 2.0 mph 93% 0.00 in
05:30 66.7 °F 64.6 °F 29.91 in Calm   1.0 mph 93% 0.00 in
05:35 66.6 °F 64.5 °F 29.91 in Calm     93% 0.00 in
05:40 66.6 °F 64.5 °F 29.92 in Calm     93% 0.00 in
05:45 66.5 °F 64.4 °F 29.92 in Calm   1.0 mph 93% 0.00 in
05:50 66.2 °F 64.1 °F 29.93 in SE 1.0 mph 1.0 mph 93% 0.00 in
05:55 65.6 °F 63.5 °F 29.93 in SE 1.0 mph 1.0 mph 93% 0.00 in
06:00 65.5 °F 63.4 °F 29.93 in Calm   1.0 mph 93% 0.00 in
06:05 65.5 °F 63.4 °F 29.93 in Calm     93% 0.00 in
06:10 65.6 °F 63.5 °F 29.93 in Calm     93% 0.00 in
06:15 65.7 °F 63.6 °F 29.94 in SSE 1.0 mph 1.0 mph 93% 0.00 in
06:20 65.9 °F 63.8 °F 29.94 in NNE 2.0 mph 3.0 mph 93% 0.00 in
06:25 65.9 °F 63.8 °F 29.94 in NNE 1.0 mph 2.0 mph 93% 0.00 in
06:30 66.0 °F 63.9 °F 29.93 in NNE 1.0 mph 1.0 mph 93% 0.00 in
06:35 66.1 °F 64.0 °F 29.93 in Calm     93% 0.00 in
06:41 65.9 °F 63.8 °F 29.93 in Calm     93% 0.00 in
06:46 65.6 °F 63.5 °F 29.93 in SSE 1.0 mph 1.0 mph 93% 0.00 in
06:51 65.3 °F 63.5 °F 29.94 in SSE 1.0 mph 1.0 mph 94% 0.00 in
06:56 65.1 °F 63.3 °F 29.94 in SSE 1.0 mph 2.0 mph 94% 0.00 in
07:01 65.0 °F 63.2 °F 29.94 in Calm   1.0 mph 94% 0.00 in
07:06 65.1 °F 63.0 °F 29.94 in Calm     93% 0.00 in
07:11 65.5 °F 63.4 °F 29.94 in Calm   1.0 mph 93% 0.00 in
07:16 65.6 °F 63.5 °F 29.94 in East 1.0 mph 2.0 mph 93% 0.00 in
07:21 65.7 °F 63.6 °F 29.94 in Calm     93% 0.00 in
07:26 65.4 °F 63.3 °F 29.94 in Calm     93% 0.00 in
07:31 65.3 °F 63.5 °F 29.94 in SE 1.0 mph 1.0 mph 94% 0.00 in
07:36 65.2 °F 63.4 °F 29.94 in Calm   1.0 mph 94% 0.00 in
07:41 65.2 °F 63.4 °F 29.94 in Calm     94% 0.00 in
07:46 65.2 °F 63.4 °F 29.94 in Calm     94% 0.00 in
07:51 65.5 °F 63.4 °F 29.95 in Calm     93% 0.00 in
07:56 65.9 °F 63.8 °F 29.95 in Calm     93% 0.00 in
08:01 66.4 °F 64.3 °F 29.95 in Calm   1.0 mph 93% 0.00 in
08:06 66.7 °F 64.6 °F 29.94 in SSW 1.0 mph 2.0 mph 93% 0.00 in
08:11 67.1 °F 65.0 °F 29.95 in Calm     93% 0.00 in
08:16 67.6 °F 65.5 °F 29.95 in Calm     93% 0.00 in
08:21 68.5 °F 66.4 °F 29.95 in South 1.0 mph 1.0 mph 93% 0.00 in
08:26 68.8 °F 66.7 °F 29.95 in SSE 2.0 mph 4.0 mph 93% 0.00 in
08:32 68.9 °F 66.8 °F 29.95 in Calm   3.0 mph 93% 0.00 in
08:37 69.3 °F 67.2 °F 29.95 in SE 1.0 mph 1.0 mph 93% 0.00 in
08:42 69.7 °F 67.6 °F 29.95 in SSE 2.0 mph 2.0 mph 93% 0.00 in
08:47 70.4 °F 68.3 °F 29.95 in Calm   2.0 mph 93% 0.00 in
08:52 71.2 °F 69.1 °F 29.96 in SSW 1.0 mph 1.0 mph 93% 0.00 in
08:57 71.5 °F 69.1 °F 29.96 in WSW 1.0 mph 2.0 mph 92% 0.00 in
09:02 71.6 °F 68.8 °F 29.96 in SW 2.0 mph 3.0 mph 91% 0.00 in
09:07 71.7 °F 68.6 °F 29.96 in SSW 3.0 mph 5.0 mph 90% 0.00 in
09:12 71.9 °F 68.8 °F 29.96 in SW 2.0 mph 4.0 mph 90% 0.00 in
09:17 72.1 °F 69.0 °F 29.96 in SW 2.0 mph 3.0 mph 90% 0.00 in
09:22 72.2 °F 69.1 °F 29.96 in SW 4.0 mph 4.0 mph 90% 0.00 in
09:27 72.4 °F 69.0 °F 29.96 in SW 3.0 mph 3.0 mph 89% 0.00 in
09:32 72.7 °F 69.6 °F 29.97 in SSW 4.0 mph 4.0 mph 90% 0.00 in
09:37 73.1 °F 69.3 °F 29.97 in WSW 3.0 mph 6.0 mph 88% 0.00 in
09:42 73.2 °F 69.4 °F 29.97 in WSW 1.0 mph 5.0 mph 88% 0.00 in
09:47 73.6 °F 69.8 °F 29.97 in WSW 3.0 mph 4.0 mph 88% 0.00 in
09:52 73.7 °F 69.9 °F 29.97 in WSW 3.0 mph 3.0 mph 88% 0.00 in
09:57 73.9 °F 69.8 °F 29.97 in SW 5.0 mph 6.0 mph 87% 0.00 in
10:02 73.9 °F 70.1 °F 29.98 in SW 3.0 mph 4.0 mph 88% 0.00 in
10:07 73.8 °F 69.7 °F 29.99 in North 4.0 mph 10.0 mph 87% 0.00 in
10:12 72.4 °F 68.0 °F 29.99 in ENE 9.0 mph 12.0 mph 86% 0.00 in
10:17 71.5 °F 67.8 °F 29.99 in East 4.0 mph 8.0 mph 88% 0.00 in
10:22 71.1 °F 67.7 °F 29.99 in NE 4.0 mph 9.0 mph 89% 0.00 in
10:27 70.8 °F 67.1 °F 29.99 in NE 4.0 mph 8.0 mph 88% 0.00 in
10:32 70.7 °F 67.0 °F 29.99 in ENE 2.0 mph 7.0 mph 88% 0.00 in
10:37 70.7 °F 67.0 °F 29.98 in East 4.0 mph 5.0 mph 88% 0.00 in
10:42 70.9 °F 67.2 °F 29.99 in ENE 2.0 mph 5.0 mph 88% 0.00 in
10:47 71.2 °F 66.8 °F 29.98 in East 3.0 mph 7.0 mph 86% 0.00 in
10:52 71.7 °F 67.6 °F 29.99 in NE 3.0 mph 4.0 mph 87% 0.00 in
10:57 72.0 °F 67.6 °F 29.99 in NNE 5.0 mph 6.0 mph 86% 0.00 in
11:02 71.8 °F 66.7 °F 29.99 in ENE 3.0 mph 7.0 mph 84% 0.00 in
11:07 71.4 °F 66.3 °F 29.99 in ENE 8.0 mph 11.0 mph 84% 0.00 in
11:12 71.1 °F 66.4 °F 30.00 in NNE 8.0 mph 10.0 mph 85% 0.00 in
11:17 70.9 °F 66.2 °F 30.00 in NE 7.0 mph 11.0 mph 85% 0.00 in
11:22 70.9 °F 66.2 °F 30.00 in NNE 4.0 mph 8.0 mph 85% 0.00 in
11:27 71.1 °F 66.7 °F 29.99 in NE 3.0 mph 7.0 mph 86% 0.00 in
11:32 71.5 °F 66.8 °F 29.99 in NE 6.0 mph 6.0 mph 85% 0.00 in
11:37 71.8 °F 67.1 °F 29.99 in NE 5.0 mph 8.0 mph 85% 0.00 in
11:42 72.4 °F 67.6 °F 29.99 in East 6.0 mph 8.0 mph 85% 0.00 in
11:48 72.9 °F 68.1 °F 29.99 in East 4.0 mph 6.0 mph 85% 0.00 in
11:53 73.5 °F 68.0 °F 29.98 in ESE 5.0 mph 8.0 mph 83% 0.00 in
11:58 74.4 °F 68.2 °F 29.98 in ENE 3.0 mph 7.0 mph 81% 0.00 in
12:03 74.7 °F 67.4 °F 29.98 in SE 3.0 mph 8.0 mph 78% 0.00 in
12:08 74.6 °F 67.3 °F 29.98 in ESE 4.0 mph 4.0 mph 78% 0.00 in
12:13 74.8 °F 67.5 °F 29.98 in SE 3.0 mph 4.0 mph 78% 0.00 in
12:18 75.3 °F 68.0 °F 29.97 in East 1.0 mph 5.0 mph 78% 0.00 in
12:23 76.0 °F 68.7 °F 29.97 in SSE 4.0 mph 4.0 mph 78% 0.00 in
12:28 76.8 °F 68.3 °F 29.96 in SE 4.0 mph 7.0 mph 75% 0.00 in
12:33 76.7 °F 68.9 °F 29.95 in SE 5.0 mph 7.0 mph 77% 0.00 in
12:38 76.8 °F 67.9 °F 29.95 in ESE 6.0 mph 8.0 mph 74% 0.00 in
12:43 76.8 °F 68.7 °F 29.94 in SSE 7.0 mph 8.0 mph 76% 0.00 in
12:48 76.9 °F 68.8 °F 29.93 in South 5.0 mph 9.0 mph 76% 0.00 in
12:53 77.2 °F 69.1 °F 29.92 in SSE 9.0 mph 9.0 mph 76% 0.00 in
12:58 77.5 °F 70.1 °F 29.92 in South 5.0 mph 8.0 mph 78% 0.00 in
13:03 77.9 °F 69.3 °F 29.92 in SSE 7.0 mph 7.0 mph 75% 0.00 in
13:08 77.9 °F 68.6 °F 29.92 in SE 3.0 mph 8.0 mph 73% 0.00 in
13:13 78.3 °F 69.7 °F 29.92 in South 3.0 mph 8.0 mph 75% 0.00 in
13:18 78.7 °F 69.3 °F 29.92 in SW 6.0 mph 7.0 mph 73% 0.00 in
13:23 79.1 °F 69.3 °F 29.92 in South 4.0 mph 7.0 mph 72% 0.00 in
13:28 79.9 °F 70.1 °F 29.91 in South 4.0 mph 7.0 mph 72% 0.00 in
13:33 80.4 °F 71.0 °F 29.91 in SSE 4.0 mph 8.0 mph 73% 0.00 in
13:38 80.6 °F 70.3 °F 29.91 in SSW 4.0 mph 6.0 mph 71% 0.00 in
13:43 80.9 °F 69.8 °F 29.91 in SSE 7.0 mph 8.0 mph 69% 0.00 in
13:48 80.9 °F 70.2 °F 29.91 in SSE 4.0 mph 7.0 mph 70% 0.00 in
13:53 81.0 °F 69.4 °F 29.91 in SW 3.0 mph 6.0 mph 68% 0.00 in
13:58 81.3 °F 69.7 °F 29.91 in SSE 4.0 mph 6.0 mph 68% 0.00 in
14:03 81.6 °F 70.0 °F 29.91 in SW 4.0 mph 4.0 mph 68% 0.00 in
14:08 81.7 °F 70.1 °F 29.91 in South 4.0 mph 7.0 mph 68% 0.00 in
14:13 81.9 °F 70.3 °F 29.90 in SW 5.0 mph 6.0 mph 68% 0.00 in
14:18 82.1 °F 70.5 °F 29.90 in SSE 5.0 mph 6.0 mph 68% 0.00 in
14:23 82.6 °F 70.5 °F 29.89 in South 1.0 mph 8.0 mph 67% 0.00 in
14:28 82.7 °F 70.6 °F 29.89 in SW 7.0 mph 8.0 mph 67% 0.00 in
14:33 82.5 °F 70.9 °F 29.89 in SW 3.0 mph 6.0 mph 68% 0.00 in
14:38 83.1 °F 71.4 °F 29.89 in SW 5.0 mph 5.0 mph 68% 0.00 in
14:43 83.1 °F 71.4 °F 29.89 in SSW 4.0 mph 7.0 mph 68% 0.00 in
14:49 83.6 °F 70.6 °F 29.88 in SSW 8.0 mph 10.0 mph 65% 0.00 in
14:54 83.4 °F 71.3 °F 29.88 in WSW 5.0 mph 11.0 mph 67% 0.00 in
14:59 83.6 °F 71.1 °F 29.88 in SSE 2.0 mph 10.0 mph 66% 0.00 in
15:04 83.6 °F 71.5 °F 29.87 in WSW 7.0 mph 9.0 mph 67% 0.00 in
15:09 83.8 °F 70.3 °F 29.87 in SW 8.0 mph 12.0 mph 64% 0.00 in
15:14 83.9 °F 72.2 °F 29.86 in SSW 6.0 mph 11.0 mph 68% 0.00 in
15:19 84.2 °F 71.6 °F 29.86 in WSW 9.0 mph 11.0 mph 66% 0.00 in
15:24 83.8 °F 70.8 °F 29.86 in WSW 7.0 mph 12.0 mph 65% 0.00 in
15:29 83.9 °F 71.3 °F 29.87 in SW 6.0 mph 12.0 mph 66% 0.00 in
15:34 83.8 °F 71.2 °F 29.87 in West 6.0 mph 11.0 mph 66% 0.00 in
15:39 83.9 °F 70.4 °F 29.88 in SSE 6.0 mph 8.0 mph 64% 0.00 in
15:44 84.4 °F 70.9 °F 29.88 in SSW 7.0 mph 8.0 mph 64% 0.00 in
15:49 84.6 °F 71.1 °F 29.88 in SW 5.0 mph 8.0 mph 64% 0.00 in
15:54 84.8 °F 71.7 °F 29.87 in WSW 7.0 mph 7.0 mph 65% 0.00 in
15:59 84.8 °F 71.3 °F 29.87 in SW 9.0 mph 10.0 mph 64% 0.00 in
16:04 84.5 °F 70.5 °F 29.87 in SW 5.0 mph 9.0 mph 63% 0.00 in
16:09 84.3 °F 70.3 °F 29.87 in SE 3.0 mph 8.0 mph 63% 0.00 in
16:14 84.1 °F 71.1 °F 29.87 in SSW 4.0 mph 8.0 mph 65% 0.00 in
16:19 84.1 °F 70.6 °F 29.87 in SSE 4.0 mph 9.0 mph 64% 0.00 in
16:24 84.2 °F 71.6 °F 29.87 in SSW 3.0 mph 9.0 mph 66% 0.00 in
16:30 84.3 °F 70.8 °F 29.87 in SW 5.0 mph 8.0 mph 64% 0.00 in
16:35 84.1 °F 71.5 °F 29.87 in Calm   5.0 mph 66% 0.00 in
16:40 83.8 °F 71.2 °F 29.87 in SW 4.0 mph 6.0 mph 66% 0.00 in
16:45 83.5 °F 70.9 °F 29.87 in WSW 2.0 mph 3.0 mph 66% 0.00 in
16:50 83.6 °F 71.9 °F 29.87 in South 5.0 mph 6.0 mph 68% 0.00 in
16:55 83.8 °F 71.2 °F 29.87 in WSW 3.0 mph 4.0 mph 66% 0.00 in
17:01 83.9 °F 72.2 °F 29.87 in SW 4.0 mph 5.0 mph 68% 0.00 in
17:06 84.2 °F 72.1 °F 29.87 in SSW 1.0 mph 4.0 mph 67% 0.00 in
17:11 84.5 °F 71.4 °F 29.87 in Calm   2.0 mph 65% 0.00 in
17:16 84.9 °F 71.8 °F 29.87 in WNW 2.0 mph 3.0 mph 65% 0.00 in
17:21 84.9 °F 72.7 °F 29.87 in NW 3.0 mph 3.0 mph 67% 0.00 in
17:26 84.5 °F 71.4 °F 29.86 in Calm   4.0 mph 65% 0.00 in
17:31 84.2 °F 72.1 °F 29.86 in NW 3.0 mph 3.0 mph 67% 0.00 in
17:36 84.1 °F 72.4 °F 29.86 in NNW 2.0 mph 3.0 mph 68% 0.00 in
17:41 84.5 °F 72.8 °F 29.86 in NW 1.0 mph 2.0 mph 68% 0.00 in
17:46 84.9 °F 72.7 °F 29.86 in WNW 2.0 mph 2.0 mph 67% 0.00 in
17:51 85.4 °F 72.3 °F 29.86 in SE 2.0 mph 3.0 mph 65% 0.00 in
17:56 85.1 °F 71.6 °F 29.86 in SE 2.0 mph 5.0 mph 64% 0.00 in
18:01 85.2 °F 71.7 °F 29.86 in SSW 2.0 mph 4.0 mph 64% 0.00 in
18:06 85.5 °F 71.9 °F 29.86 in SW 2.0 mph 2.0 mph 64% 0.00 in
18:11 85.8 °F 72.7 °F 29.86 in SSW 2.0 mph 3.0 mph 65% 0.00 in
18:16 85.4 °F 71.8 °F 29.86 in SW 4.0 mph 5.0 mph 64% 0.00 in
18:21 85.0 °F 71.9 °F 29.86 in SW 4.0 mph 5.0 mph 65% 0.00 in
18:26 84.6 °F 72.0 °F 29.86 in SSW 2.0 mph 4.0 mph 66% 0.00 in
18:31 84.4 °F 72.7 °F 29.86 in SW 5.0 mph 5.0 mph 68% 0.00 in
18:36 83.8 °F 72.1 °F 29.86 in WSW 2.0 mph 3.0 mph 68% 0.00 in
18:41 83.5 °F 71.8 °F 29.85 in WSW 1.0 mph 3.0 mph 68% 0.00 in
18:46 83.3 °F 71.6 °F 29.86 in SW 2.0 mph 2.0 mph 68% 0.00 in
18:51 83.2 °F 72.0 °F 29.85 in WSW 1.0 mph 2.0 mph 69% 0.00 in
18:56 83.0 °F 72.2 °F 29.85 in WSW 1.0 mph 2.0 mph 70% 0.00 in
19:01 83.0 °F 72.2 °F 29.86 in WSW 1.0 mph 2.0 mph 70% 0.00 in
19:06 82.8 °F 72.0 °F 29.86 in WSW 1.0 mph 2.0 mph 70% 0.00 in
19:11 82.7 °F 72.3 °F 29.85 in SW 1.0 mph 1.0 mph 71% 0.00 in
19:16 82.7 °F 72.8 °F 29.85 in Calm     72% 0.00 in
19:21 82.7 °F 72.3 °F 29.85 in Calm     71% 0.00 in
19:26 82.5 °F 72.2 °F 29.86 in Calm     71% 0.00 in
19:31 82.5 °F 72.6 °F 29.86 in Calm     72% 0.00 in
19:36 82.2 °F 73.9 °F 29.86 in Calm   1.0 mph 76% 0.00 in
19:42 81.6 °F 73.3 °F 29.86 in Calm     76% 0.00 in
19:47 81.0 °F 73.5 °F 29.86 in SW 1.0 mph 1.0 mph 78% 0.00 in
19:52 80.6 °F 73.1 °F 29.86 in Calm   1.0 mph 78% 0.00 in
19:53 80.6 °F 73.1 °F 29.86 in Calm   1.0 mph 78% 0.00 in
19:58 80.2 °F 73.5 °F 29.86 in Calm   1.0 mph 80% 0.00 in
20:03 79.7 °F 73.7 °F 29.86 in Calm     82% 0.00 in
20:08 79.0 °F 73.0 °F 29.86 in SE 1.0 mph 1.0 mph 82% 0.00 in
20:13 78.6 °F 72.7 °F 29.86 in Calm   1.0 mph 82% 0.00 in
20:18 78.6 °F 72.7 °F 29.86 in Calm     82% 0.00 in
20:24 78.7 °F 73.1 °F 29.86 in ESE 1.0 mph 1.0 mph 83% 0.00 in
20:29 78.8 °F 73.2 °F 29.86 in ESE 1.0 mph 1.0 mph 83% 0.00 in
20:34 78.8 °F 73.2 °F 29.86 in ESE 1.0 mph 1.0 mph 83% 0.00 in
20:39 78.6 °F 73.0 °F 29.86 in ESE 1.0 mph 1.0 mph 83% 0.00 in
20:44 78.5 °F 72.6 °F 29.86 in Calm   1.0 mph 82% 0.00 in
20:49 78.2 °F 72.6 °F 29.87 in Calm     83% 0.00 in
20:54 77.7 °F 72.1 °F 29.87 in Calm     83% 0.00 in
20:59 77.4 °F 72.5 °F 29.87 in Calm     85% 0.00 in
21:04 76.8 °F 72.3 °F 29.87 in Calm     86% 0.00 in
21:09 76.3 °F 71.8 °F 29.87 in Calm     86% 0.00 in
21:14 76.3 °F 71.8 °F 29.87 in Calm   1.0 mph 86% 0.00 in
21:19 76.2 °F 71.7 °F 29.87 in Calm     86% 0.00 in
21:24 76.0 °F 71.5 °F 29.87 in ESE 1.0 mph 1.0 mph 86% 0.00 in
21:29 76.1 °F 71.3 °F 29.87 in East 1.0 mph 2.0 mph 85% 0.00 in
21:34 76.6 °F 71.4 °F 29.87 in Calm   1.0 mph 84% 0.00 in
21:39 76.7 °F 71.2 °F 29.87 in Calm     83% 0.00 in
21:44 76.6 °F 71.1 °F 29.87 in East 1.0 mph 1.0 mph 83% 0.00 in
21:49 76.2 °F 71.0 °F 29.87 in Calm     84% 0.00 in
21:54 75.5 °F 70.7 °F 29.88 in Calm     85% 0.00 in
21:59 75.1 °F 70.6 °F 29.88 in Calm     86% 0.00 in
22:04 74.8 °F 70.7 °F 29.88 in Calm     87% 0.00 in
22:09 74.2 °F 70.4 °F 29.88 in Calm   1.0 mph 88% 0.00 in
22:14 73.8 °F 70.4 °F 29.88 in Calm     89% 0.00 in
22:19 73.6 °F 70.2 °F 29.89 in Calm     89% 0.00 in
22:24 73.4 °F 70.0 °F 29.89 in East 1.0 mph 1.0 mph 89% 0.00 in
22:29 73.4 °F 70.3 °F 29.89 in Calm   1.0 mph 90% 0.00 in
22:34 73.2 °F 70.4 °F 29.89 in Calm     91% 0.00 in
22:40 73.1 °F 70.3 °F 29.89 in Calm     91% 0.00 in
22:45 73.1 °F 70.3 °F 29.89 in Calm     91% 0.00 in
22:50 73.1 °F 70.3 °F 29.90 in Calm     91% 0.00 in
22:55 73.0 °F 70.2 °F 29.90 in Calm     91% 0.00 in
23:00 73.0 °F 70.2 °F 29.90 in Calm     91% 0.00 in
23:05 72.9 °F 70.1 °F 29.90 in Calm     91% 0.00 in
23:10 72.7 °F 69.9 °F 29.90 in Calm     91% 0.00 in
23:15 72.6 °F 69.8 °F 29.90 in Calm     91% 0.00 in
23:20 72.4 °F 69.6 °F 29.90 in Calm     91% 0.00 in
23:25 72.4 °F 69.6 °F 29.90 in NNE 1.0 mph 1.0 mph 91% 0.00 in
23:30 72.6 °F 69.8 °F 29.90 in Calm     91% 0.00 in
23:35 72.3 °F 69.2 °F 29.90 in Calm     90% 0.00 in
23:40 72.3 °F 69.5 °F 29.90 in Calm     91% 0.00 in
23:45 72.1 °F 69.3 °F 29.90 in Calm     91% 0.00 in
23:50 71.9 °F 69.1 °F 29.90 in Calm     91% 0.00 in
23:55 71.7 °F 68.9 °F 29.90 in Calm     91% 0.00 in
Compliments of Weather Underground